sensor_id;sensor_type;location;lat;lon;timestamp;P1;durP1;ratioP1;P2;durP2;ratioP2
81170;SDS011;70644;44.818;20.478;2023-11-21T00:01:54;15.07;;;12.65;;
81170;SDS011;70644;44.818;20.478;2023-11-21T00:04:21;14.73;;;13.07;;
81170;SDS011;70644;44.818;20.478;2023-11-21T00:06:47;13.70;;;12.30;;
81170;SDS011;70644;44.818;20.478;2023-11-21T00:09:13;14.90;;;12.63;;
81170;SDS011;70644;44.818;20.478;2023-11-21T00:11:44;16.40;;;13.80;;
81170;SDS011;70644;44.818;20.478;2023-11-21T00:14:11;14.25;;;12.75;;
81170;SDS011;70644;44.818;20.478;2023-11-21T00:16:37;15.25;;;13.65;;
81170;SDS011;70644;44.818;20.478;2023-11-21T00:19:03;14.77;;;13.18;;
81170;SDS011;70644;44.818;20.478;2023-11-21T00:21:29;14.75;;;13.25;;
81170;SDS011;70644;44.818;20.478;2023-11-21T00:23:56;16.67;;;13.52;;
81170;SDS011;70644;44.818;20.478;2023-11-21T00:26:22;16.20;;;14.23;;
81170;SDS011;70644;44.818;20.478;2023-11-21T00:28:49;15.15;;;13.65;;
81170;SDS011;70644;44.818;20.478;2023-11-21T00:31:15;15.32;;;13.73;;
81170;SDS011;70644;44.818;20.478;2023-11-21T00:33:41;16.70;;;13.55;;
81170;SDS011;70644;44.818;20.478;2023-11-21T00:36:08;15.10;;;13.40;;
81170;SDS011;70644;44.818;20.478;2023-11-21T00:38:37;15.07;;;13.43;;
81170;SDS011;70644;44.818;20.478;2023-11-21T00:41:05;16.55;;;13.88;;
81170;SDS011;70644;44.818;20.478;2023-11-21T00:43:31;17.90;;;14.30;;
81170;SDS011;70644;44.818;20.478;2023-11-21T00:45:58;16.10;;;13.90;;
81170;SDS011;70644;44.818;20.478;2023-11-21T00:48:27;16.42;;;14.32;;
81170;SDS011;70644;44.818;20.478;2023-11-21T00:50:53;15.90;;;14.30;;
81170;SDS011;70644;44.818;20.478;2023-11-21T00:53:21;15.93;;;14.23;;
81170;SDS011;70644;44.818;20.478;2023-11-21T00:55:47;15.98;;;14.07;;
81170;SDS011;70644;44.818;20.478;2023-11-21T00:58:13;17.45;;;14.88;;
81170;SDS011;70644;44.818;20.478;2023-11-21T01:00:39;16.20;;;14.45;;
81170;SDS011;70644;44.818;20.478;2023-11-21T01:03:06;16.10;;;14.45;;
81170;SDS011;70644;44.818;20.478;2023-11-21T01:05:33;15.55;;;13.95;;
81170;SDS011;70644;44.818;20.478;2023-11-21T01:07:59;16.98;;;15.18;;
81170;SDS011;70644;44.818;20.478;2023-11-21T01:10:25;16.52;;;14.73;;
81170;SDS011;70644;44.818;20.478;2023-11-21T01:12:51;15.88;;;14.27;;
81170;SDS011;70644;44.818;20.478;2023-11-21T01:15:17;17.80;;;15.40;;
81170;SDS011;70644;44.818;20.478;2023-11-21T01:17:43;16.73;;;14.25;;
81170;SDS011;70644;44.818;20.478;2023-11-21T01:20:09;16.67;;;14.93;;
81170;SDS011;70644;44.818;20.478;2023-11-21T01:22:37;16.75;;;14.40;;
81170;SDS011;70644;44.818;20.478;2023-11-21T01:25:04;16.33;;;14.52;;
81170;SDS011;70644;44.818;20.478;2023-11-21T01:27:33;16.90;;;14.50;;
81170;SDS011;70644;44.818;20.478;2023-11-21T01:29:59;16.83;;;14.85;;
81170;SDS011;70644;44.818;20.478;2023-11-21T01:32:25;16.25;;;14.55;;
81170;SDS011;70644;44.818;20.478;2023-11-21T01:34:51;16.88;;;15.10;;
81170;SDS011;70644;44.818;20.478;2023-11-21T01:37:18;15.70;;;13.45;;
81170;SDS011;70644;44.818;20.478;2023-11-21T01:39:44;16.65;;;14.80;;
81170;SDS011;70644;44.818;20.478;2023-11-21T01:42:10;17.73;;;15.02;;
81170;SDS011;70644;44.818;20.478;2023-11-21T01:44:38;16.25;;;14.55;;
81170;SDS011;70644;44.818;20.478;2023-11-21T01:47:05;16.80;;;15.00;;
81170;SDS011;70644;44.818;20.478;2023-11-21T01:49:32;16.45;;;14.43;;
81170;SDS011;70644;44.818;20.478;2023-11-21T01:51:58;16.67;;;14.98;;
81170;SDS011;70644;44.818;20.478;2023-11-21T01:54:24;16.85;;;15.15;;
81170;SDS011;70644;44.818;20.478;2023-11-21T01:56:51;16.27;;;14.57;;
81170;SDS011;70644;44.818;20.478;2023-11-21T01:59:18;16.42;;;14.73;;
81170;SDS011;70644;44.818;20.478;2023-11-21T02:01:46;16.67;;;14.45;;
81170;SDS011;70644;44.818;20.478;2023-11-21T02:04:13;17.25;;;15.43;;
81170;SDS011;70644;44.818;20.478;2023-11-21T02:06:39;17.05;;;15.27;;
81170;SDS011;70644;44.818;20.478;2023-11-21T02:09:05;17.23;;;14.77;;
81170;SDS011;70644;44.818;20.478;2023-11-21T02:11:32;16.70;;;15.00;;
81170;SDS011;70644;44.818;20.478;2023-11-21T02:14:00;16.40;;;14.55;;
81170;SDS011;70644;44.818;20.478;2023-11-21T02:16:27;16.92;;;15.15;;
81170;SDS011;70644;44.818;20.478;2023-11-21T02:18:56;16.40;;;14.57;;
81170;SDS011;70644;44.818;20.478;2023-11-21T02:21:22;16.90;;;14.80;;
81170;SDS011;70644;44.818;20.478;2023-11-21T02:23:48;16.05;;;14.20;;
81170;SDS011;70644;44.818;20.478;2023-11-21T02:26:16;17.52;;;15.75;;
81170;SDS011;70644;44.818;20.478;2023-11-21T02:28:42;17.60;;;15.70;;
81170;SDS011;70644;44.818;20.478;2023-11-21T02:31:08;17.00;;;15.20;;
81170;SDS011;70644;44.818;20.478;2023-11-21T02:33:34;16.60;;;14.80;;
81170;SDS011;70644;44.818;20.478;2023-11-21T02:36:00;16.50;;;14.70;;
81170;SDS011;70644;44.818;20.478;2023-11-21T02:38:27;17.67;;;15.32;;
81170;SDS011;70644;44.818;20.478;2023-11-21T02:40:53;17.38;;;14.50;;
81170;SDS011;70644;44.818;20.478;2023-11-21T02:43:19;17.20;;;15.40;;
81170;SDS011;70644;44.818;20.478;2023-11-21T02:45:45;16.98;;;15.27;;
81170;SDS011;70644;44.818;20.478;2023-11-21T02:48:11;17.10;;;15.32;;
81170;SDS011;70644;44.818;20.478;2023-11-21T02:50:37;18.15;;;15.48;;
81170;SDS011;70644;44.818;20.478;2023-11-21T02:53:03;16.73;;;14.60;;
81170;SDS011;70644;44.818;20.478;2023-11-21T02:55:31;17.50;;;15.63;;
81170;SDS011;70644;44.818;20.478;2023-11-21T02:58:00;16.77;;;14.98;;
81170;SDS011;70644;44.818;20.478;2023-11-21T03:00:26;16.85;;;15.05;;
81170;SDS011;70644;44.818;20.478;2023-11-21T03:02:53;17.42;;;14.98;;
81170;SDS011;70644;44.818;20.478;2023-11-21T03:05:19;17.92;;;15.70;;
81170;SDS011;70644;44.818;20.478;2023-11-21T03:07:45;16.55;;;14.23;;
81170;SDS011;70644;44.818;20.478;2023-11-21T03:10:11;16.95;;;15.23;;
81170;SDS011;70644;44.818;20.478;2023-11-21T03:12:38;16.45;;;14.75;;
81170;SDS011;70644;44.818;20.478;2023-11-21T03:15:04;16.17;;;14.57;;
81170;SDS011;70644;44.818;20.478;2023-11-21T03:17:31;16.58;;;14.88;;
81170;SDS011;70644;44.818;20.478;2023-11-21T03:19:58;16.00;;;13.40;;
81170;SDS011;70644;44.818;20.478;2023-11-21T03:22:25;15.95;;;14.25;;
81170;SDS011;70644;44.818;20.478;2023-11-21T03:24:51;16.42;;;14.80;;
81170;SDS011;70644;44.818;20.478;2023-11-21T03:27:18;15.93;;;14.23;;
81170;SDS011;70644;44.818;20.478;2023-11-21T03:29:44;16.52;;;14.75;;
81170;SDS011;70644;44.818;20.478;2023-11-21T03:32:11;16.67;;;14.88;;
81170;SDS011;70644;44.818;20.478;2023-11-21T03:34:52;15.88;;;14.27;;
81170;SDS011;70644;44.818;20.478;2023-11-21T03:37:20;16.58;;;14.82;;
81170;SDS011;70644;44.818;20.478;2023-11-21T03:39:46;16.30;;;14.50;;
81170;SDS011;70644;44.818;20.478;2023-11-21T03:42:12;15.43;;;13.82;;
81170;SDS011;70644;44.818;20.478;2023-11-21T03:44:38;16.10;;;14.40;;
81170;SDS011;70644;44.818;20.478;2023-11-21T03:47:04;15.00;;;13.50;;
81170;SDS011;70644;44.818;20.478;2023-11-21T03:49:30;15.27;;;13.68;;
81170;SDS011;70644;44.818;20.478;2023-11-21T03:51:56;15.80;;;14.02;;
81170;SDS011;70644;44.818;20.478;2023-11-21T03:54:22;15.48;;;13.70;;
81170;SDS011;70644;44.818;20.478;2023-11-21T03:56:49;17.05;;;14.38;;
81170;SDS011;70644;44.818;20.478;2023-11-21T03:59:15;15.55;;;13.93;;
81170;SDS011;70644;44.818;20.478;2023-11-21T04:01:41;15.05;;;13.45;;
81170;SDS011;70644;44.818;20.478;2023-11-21T04:04:07;15.32;;;13.75;;
81170;SDS011;70644;44.818;20.478;2023-11-21T04:06:33;15.70;;;13.77;;
81170;SDS011;70644;44.818;20.478;2023-11-21T04:09:00;15.18;;;13.57;;
81170;SDS011;70644;44.818;20.478;2023-11-21T04:11:29;16.02;;;14.00;;
81170;SDS011;70644;44.818;20.478;2023-11-21T04:13:55;16.42;;;14.75;;
81170;SDS011;70644;44.818;20.478;2023-11-21T04:16:21;15.82;;;12.35;;
81170;SDS011;70644;44.818;20.478;2023-11-21T04:18:47;15.52;;;13.80;;
81170;SDS011;70644;44.818;20.478;2023-11-21T04:21:13;14.77;;;13.27;;
81170;SDS011;70644;44.818;20.478;2023-11-21T04:23:40;15.13;;;13.52;;
81170;SDS011;70644;44.818;20.478;2023-11-21T04:26:06;15.35;;;13.75;;
81170;SDS011;70644;44.818;20.478;2023-11-21T04:28:32;15.43;;;13.43;;
81170;SDS011;70644;44.818;20.478;2023-11-21T04:30:58;15.10;;;13.60;;
81170;SDS011;70644;44.818;20.478;2023-11-21T04:33:24;15.07;;;13.57;;
81170;SDS011;70644;44.818;20.478;2023-11-21T04:35:50;15.18;;;13.57;;
81170;SDS011;70644;44.818;20.478;2023-11-21T04:38:16;14.98;;;13.13;;
81170;SDS011;70644;44.818;20.478;2023-11-21T04:40:44;15.25;;;13.65;;
81170;SDS011;70644;44.818;20.478;2023-11-21T04:43:10;15.30;;;13.50;;
81170;SDS011;70644;44.818;20.478;2023-11-21T04:45:36;14.50;;;13.10;;
81170;SDS011;70644;44.818;20.478;2023-11-21T04:48:02;14.90;;;13.40;;
81170;SDS011;70644;44.818;20.478;2023-11-21T04:50:28;14.70;;;13.20;;
81170;SDS011;70644;44.818;20.478;2023-11-21T04:52:54;14.98;;;13.45;;
81170;SDS011;70644;44.818;20.478;2023-11-21T04:55:21;15.13;;;13.38;;
81170;SDS011;70644;44.818;20.478;2023-11-21T04:57:47;14.70;;;13.10;;
81170;SDS011;70644;44.818;20.478;2023-11-21T05:00:13;14.60;;;13.13;;
81170;SDS011;70644;44.818;20.478;2023-11-21T05:02:40;14.13;;;12.63;;
81170;SDS011;70644;44.818;20.478;2023-11-21T05:05:07;13.80;;;12.40;;
81170;SDS011;70644;44.818;20.478;2023-11-21T05:07:35;14.88;;;13.38;;
81170;SDS011;70644;44.818;20.478;2023-11-21T05:10:01;13.98;;;12.57;;
81170;SDS011;70644;44.818;20.478;2023-11-21T05:12:33;14.90;;;13.23;;
81170;SDS011;70644;44.818;20.478;2023-11-21T05:15:06;14.68;;;13.13;;
81170;SDS011;70644;44.818;20.478;2023-11-21T05:17:35;13.20;;;11.05;;
81170;SDS011;70644;44.818;20.478;2023-11-21T05:20:02;14.00;;;12.50;;
81170;SDS011;70644;44.818;20.478;2023-11-21T05:22:29;14.40;;;12.90;;
81170;SDS011;70644;44.818;20.478;2023-11-21T05:24:55;13.65;;;12.27;;
81170;SDS011;70644;44.818;20.478;2023-11-21T05:27:21;14.15;;;12.68;;
81170;SDS011;70644;44.818;20.478;2023-11-21T05:29:47;15.00;;;13.45;;
81170;SDS011;70644;44.818;20.478;2023-11-21T05:32:13;14.23;;;12.73;;
81170;SDS011;70644;44.818;20.478;2023-11-21T05:34:39;14.02;;;12.63;;
81170;SDS011;70644;44.818;20.478;2023-11-21T05:37:06;13.80;;;12.40;;
81170;SDS011;70644;44.818;20.478;2023-11-21T05:39:32;14.77;;;13.27;;
81170;SDS011;70644;44.818;20.478;2023-11-21T05:41:58;13.90;;;12.50;;
81170;SDS011;70644;44.818;20.478;2023-11-21T05:44:26;14.70;;;13.20;;
81170;SDS011;70644;44.818;20.478;2023-11-21T05:46:52;13.82;;;12.43;;
81170;SDS011;70644;44.818;20.478;2023-11-21T05:49:18;13.82;;;12.30;;
81170;SDS011;70644;44.818;20.478;2023-11-21T05:51:47;13.10;;;11.80;;
81170;SDS011;70644;44.818;20.478;2023-11-21T05:54:13;13.85;;;12.50;;
81170;SDS011;70644;44.818;20.478;2023-11-21T05:56:39;14.25;;;12.73;;
81170;SDS011;70644;44.818;20.478;2023-11-21T05:59:05;14.15;;;12.60;;
81170;SDS011;70644;44.818;20.478;2023-11-21T06:01:31;14.18;;;12.68;;
81170;SDS011;70644;44.818;20.478;2023-11-21T06:03:57;14.20;;;12.27;;
81170;SDS011;70644;44.818;20.478;2023-11-21T06:06:24;14.32;;;12.80;;
81170;SDS011;70644;44.818;20.478;2023-11-21T06:08:50;13.68;;;12.15;;
81170;SDS011;70644;44.818;20.478;2023-11-21T06:11:17;14.27;;;12.80;;
81170;SDS011;70644;44.818;20.478;2023-11-21T06:13:43;14.15;;;12.77;;
81170;SDS011;70644;44.818;20.478;2023-11-21T06:16:09;15.05;;;12.93;;
81170;SDS011;70644;44.818;20.478;2023-11-21T06:18:38;13.32;;;11.93;;
81170;SDS011;70644;44.818;20.478;2023-11-21T06:21:05;13.82;;;12.43;;
81170;SDS011;70644;44.818;20.478;2023-11-21T06:23:31;14.02;;;12.32;;
81170;SDS011;70644;44.818;20.478;2023-11-21T06:25:57;13.27;;;11.77;;
81170;SDS011;70644;44.818;20.478;2023-11-21T06:28:23;13.40;;;12.00;;
81170;SDS011;70644;44.818;20.478;2023-11-21T06:30:49;13.13;;;11.82;;
81170;SDS011;70644;44.818;20.478;2023-11-21T06:33:15;12.07;;;10.75;;
81170;SDS011;70644;44.818;20.478;2023-11-21T06:35:42;13.00;;;11.65;;
81170;SDS011;70644;44.818;20.478;2023-11-21T06:38:08;12.48;;;11.27;;
81170;SDS011;70644;44.818;20.478;2023-11-21T06:40:34;13.10;;;11.70;;
81170;SDS011;70644;44.818;20.478;2023-11-21T06:43:00;13.38;;;12.05;;
81170;SDS011;70644;44.818;20.478;2023-11-21T06:45:26;13.32;;;11.93;;
81170;SDS011;70644;44.818;20.478;2023-11-21T06:47:52;12.90;;;11.57;;
81170;SDS011;70644;44.818;20.478;2023-11-21T06:50:18;13.10;;;11.80;;
81170;SDS011;70644;44.818;20.478;2023-11-21T06:52:46;13.30;;;12.00;;
81170;SDS011;70644;44.818;20.478;2023-11-21T06:55:12;12.07;;;10.85;;
81170;SDS011;70644;44.818;20.478;2023-11-21T06:57:38;13.00;;;11.70;;
81170;SDS011;70644;44.818;20.478;2023-11-21T07:00:04;12.93;;;11.52;;
81170;SDS011;70644;44.818;20.478;2023-11-21T07:02:33;13.23;;;11.93;;
81170;SDS011;70644;44.818;20.478;2023-11-21T07:05:00;12.48;;;11.27;;
81170;SDS011;70644;44.818;20.478;2023-11-21T07:07:27;12.77;;;11.48;;
81170;SDS011;70644;44.818;20.478;2023-11-21T07:09:53;12.57;;;11.27;;
81170;SDS011;70644;44.818;20.478;2023-11-21T07:12:19;11.90;;;10.70;;
81170;SDS011;70644;44.818;20.478;2023-11-21T07:14:48;12.60;;;11.30;;
81170;SDS011;70644;44.818;20.478;2023-11-21T07:17:14;11.80;;;10.65;;
81170;SDS011;70644;44.818;20.478;2023-11-21T07:19:42;11.55;;;10.38;;
81170;SDS011;70644;44.818;20.478;2023-11-21T07:22:08;11.82;;;10.48;;
81170;SDS011;70644;44.818;20.478;2023-11-21T07:24:34;12.07;;;10.88;;
81170;SDS011;70644;44.818;20.478;2023-11-21T07:27:01;11.77;;;10.57;;
81170;SDS011;70644;44.818;20.478;2023-11-21T07:29:29;11.93;;;10.73;;
81170;SDS011;70644;44.818;20.478;2023-11-21T07:31:55;11.80;;;10.70;;
81170;SDS011;70644;44.818;20.478;2023-11-21T07:34:21;11.48;;;10.38;;
81170;SDS011;70644;44.818;20.478;2023-11-21T07:36:47;12.07;;;10.88;;
81170;SDS011;70644;44.818;20.478;2023-11-21T07:39:13;11.13;;;9.93;;
81170;SDS011;70644;44.818;20.478;2023-11-21T07:41:41;11.77;;;10.55;;
81170;SDS011;70644;44.818;20.478;2023-11-21T07:44:13;12.23;;;10.93;;
81170;SDS011;70644;44.818;20.478;2023-11-21T07:46:39;11.20;;;10.10;;
81170;SDS011;70644;44.818;20.478;2023-11-21T07:49:05;11.45;;;10.25;;
81170;SDS011;70644;44.818;20.478;2023-11-21T07:51:31;10.15;;;8.57;;
81170;SDS011;70644;44.818;20.478;2023-11-21T07:53:58;13.25;;;11.88;;
81170;SDS011;70644;44.818;20.478;2023-11-21T07:56:24;15.48;;;13.02;;
81170;SDS011;70644;44.818;20.478;2023-11-21T07:58:50;14.55;;;13.00;;
81170;SDS011;70644;44.818;20.478;2023-11-21T08:01:16;26.00;;;13.57;;
81170;SDS011;70644;44.818;20.478;2023-11-21T08:03:42;17.15;;;13.90;;
81170;SDS011;70644;44.818;20.478;2023-11-21T08:06:09;15.88;;;13.93;;
81170;SDS011;70644;44.818;20.478;2023-11-21T08:08:35;19.23;;;13.70;;
81170;SDS011;70644;44.818;20.478;2023-11-21T08:11:01;15.90;;;12.45;;
81170;SDS011;70644;44.818;20.478;2023-11-21T08:13:28;16.55;;;13.25;;
81170;SDS011;70644;44.818;20.478;2023-11-21T08:15:58;14.07;;;12.63;;
81170;SDS011;70644;44.818;20.478;2023-11-21T08:18:27;15.38;;;13.48;;
81170;SDS011;70644;44.818;20.478;2023-11-21T08:20:54;15.25;;;13.63;;
81170;SDS011;70644;44.818;20.478;2023-11-21T08:23:21;15.65;;;12.63;;
81170;SDS011;70644;44.818;20.478;2023-11-21T08:25:53;14.70;;;12.45;;
81170;SDS011;70644;44.818;20.478;2023-11-21T08:28:20;14.10;;;12.57;;
81170;SDS011;70644;44.818;20.478;2023-11-21T08:30:53;13.90;;;12.40;;
81170;SDS011;70644;44.818;20.478;2023-11-21T08:33:20;14.70;;;13.15;;
81170;SDS011;70644;44.818;20.478;2023-11-21T08:35:46;14.43;;;12.73;;
81170;SDS011;70644;44.818;20.478;2023-11-21T08:38:12;13.82;;;12.18;;
81170;SDS011;70644;44.818;20.478;2023-11-21T08:40:38;15.32;;;12.32;;
81170;SDS011;70644;44.818;20.478;2023-11-21T08:43:04;16.65;;;12.40;;
81170;SDS011;70644;44.818;20.478;2023-11-21T08:45:30;13.82;;;11.55;;
81170;SDS011;70644;44.818;20.478;2023-11-21T08:47:59;13.75;;;11.60;;
81170;SDS011;70644;44.818;20.478;2023-11-21T08:50:25;13.77;;;10.73;;
81170;SDS011;70644;44.818;20.478;2023-11-21T08:52:51;13.82;;;11.13;;
81170;SDS011;70644;44.818;20.478;2023-11-21T08:55:17;13.18;;;11.63;;
81170;SDS011;70644;44.818;20.478;2023-11-21T08:57:45;14.88;;;12.00;;
81170;SDS011;70644;44.818;20.478;2023-11-21T09:00:14;14.13;;;11.60;;
81170;SDS011;70644;44.818;20.478;2023-11-21T09:02:41;15.90;;;12.45;;
81170;SDS011;70644;44.818;20.478;2023-11-21T09:05:08;14.13;;;12.18;;
81170;SDS011;70644;44.818;20.478;2023-11-21T09:07:35;13.60;;;11.10;;
81170;SDS011;70644;44.818;20.478;2023-11-21T09:10:02;13.93;;;11.27;;
81170;SDS011;70644;44.818;20.478;2023-11-21T09:12:29;15.15;;;12.60;;
81170;SDS011;70644;44.818;20.478;2023-11-21T09:14:57;17.38;;;11.93;;
81170;SDS011;70644;44.818;20.478;2023-11-21T09:17:24;14.85;;;12.65;;
81170;SDS011;70644;44.818;20.478;2023-11-21T09:19:50;13.70;;;12.10;;
81170;SDS011;70644;44.818;20.478;2023-11-21T09:22:16;14.05;;;12.40;;
81170;SDS011;70644;44.818;20.478;2023-11-21T09:24:43;15.05;;;12.00;;
81170;SDS011;70644;44.818;20.478;2023-11-21T09:27:09;14.60;;;10.88;;
81170;SDS011;70644;44.818;20.478;2023-11-21T09:29:36;16.95;;;11.70;;
81170;SDS011;70644;44.818;20.478;2023-11-21T09:32:07;14.40;;;11.68;;
81170;SDS011;70644;44.818;20.478;2023-11-21T09:34:37;14.88;;;12.13;;
81170;SDS011;70644;44.818;20.478;2023-11-21T09:37:04;15.27;;;11.30;;
81170;SDS011;70644;44.818;20.478;2023-11-21T09:39:31;13.07;;;11.63;;
81170;SDS011;70644;44.818;20.478;2023-11-21T09:42:10;14.80;;;10.93;;
81170;SDS011;70644;44.818;20.478;2023-11-21T09:47:03;15.82;;;14.15;;
81170;SDS011;70644;44.818;20.478;2023-11-21T09:49:29;17.00;;;12.45;;
81170;SDS011;70644;44.818;20.478;2023-11-21T09:52:00;16.02;;;13.90;;
81170;SDS011;70644;44.818;20.478;2023-11-21T09:54:31;16.70;;;13.98;;
81170;SDS011;70644;44.818;20.478;2023-11-21T09:56:58;16.33;;;13.65;;
81170;SDS011;70644;44.818;20.478;2023-11-21T09:59:25;15.40;;;13.68;;
81170;SDS011;70644;44.818;20.478;2023-11-21T10:01:54;17.15;;;14.32;;
81170;SDS011;70644;44.818;20.478;2023-11-21T10:04:21;14.80;;;13.25;;
81170;SDS011;70644;44.818;20.478;2023-11-21T10:06:47;17.10;;;13.32;;
81170;SDS011;70644;44.818;20.478;2023-11-21T10:09:14;18.30;;;14.70;;
81170;SDS011;70644;44.818;20.478;2023-11-21T10:11:41;17.63;;;14.45;;
81170;SDS011;70644;44.818;20.478;2023-11-21T10:14:11;20.75;;;15.02;;
81170;SDS011;70644;44.818;20.478;2023-11-21T10:16:40;19.73;;;14.93;;
81170;SDS011;70644;44.818;20.478;2023-11-21T10:19:10;19.80;;;15.52;;
81170;SDS011;70644;44.818;20.478;2023-11-21T10:21:38;18.23;;;14.50;;
81170;SDS011;70644;44.818;20.478;2023-11-21T10:24:05;19.13;;;16.33;;
81170;SDS011;70644;44.818;20.478;2023-11-21T10:26:31;18.42;;;15.52;;
81170;SDS011;70644;44.818;20.478;2023-11-21T10:28:58;20.85;;;16.50;;
81170;SDS011;70644;44.818;20.478;2023-11-21T10:31:26;20.70;;;16.80;;
81170;SDS011;70644;44.818;20.478;2023-11-21T10:33:52;22.63;;;16.67;;
81170;SDS011;70644;44.818;20.478;2023-11-21T10:36:25;19.02;;;16.85;;
81170;SDS011;70644;44.818;20.478;2023-11-21T10:38:52;23.50;;;16.33;;
81170;SDS011;70644;44.818;20.478;2023-11-21T10:41:18;21.27;;;16.27;;
81170;SDS011;70644;44.818;20.478;2023-11-21T10:43:45;18.50;;;14.75;;
81170;SDS011;70644;44.818;20.478;2023-11-21T10:46:11;18.02;;;14.80;;
81170;SDS011;70644;44.818;20.478;2023-11-21T10:48:37;20.90;;;15.32;;
81170;SDS011;70644;44.818;20.478;2023-11-21T10:51:09;20.90;;;15.25;;
81170;SDS011;70644;44.818;20.478;2023-11-21T10:53:41;21.15;;;15.18;;
81170;SDS011;70644;44.818;20.478;2023-11-21T10:56:08;20.08;;;16.33;;
81170;SDS011;70644;44.818;20.478;2023-11-21T10:58:42;18.77;;;16.45;;
81170;SDS011;70644;44.818;20.478;2023-11-21T11:01:08;21.17;;;17.63;;
81170;SDS011;70644;44.818;20.478;2023-11-21T11:03:39;25.92;;;22.58;;
81170;SDS011;70644;44.818;20.478;2023-11-21T11:06:05;24.30;;;21.20;;
81170;SDS011;70644;44.818;20.478;2023-11-21T11:08:38;22.75;;;19.30;;
81170;SDS011;70644;44.818;20.478;2023-11-21T11:11:05;22.73;;;18.70;;
81170;SDS011;70644;44.818;20.478;2023-11-21T11:13:31;22.95;;;19.27;;
81170;SDS011;70644;44.818;20.478;2023-11-21T11:15:58;24.65;;;19.60;;
81170;SDS011;70644;44.818;20.478;2023-11-21T11:18:30;24.17;;;21.73;;
81170;SDS011;70644;44.818;20.478;2023-11-21T11:21:21;26.85;;;21.42;;
81170;SDS011;70644;44.818;20.478;2023-11-21T11:24:06;25.92;;;22.92;;
81170;SDS011;70644;44.818;20.478;2023-11-21T11:27:09;29.77;;;24.85;;
81170;SDS011;70644;44.818;20.478;2023-11-21T11:34:30;32.58;;;26.20;;
81170;SDS011;70644;44.818;20.478;2023-11-21T11:37:02;31.98;;;26.55;;
81170;SDS011;70644;44.818;20.478;2023-11-21T11:39:29;31.30;;;23.83;;
81170;SDS011;70644;44.818;20.478;2023-11-21T11:41:56;32.28;;;25.02;;
81170;SDS011;70644;44.818;20.478;2023-11-21T11:47:28;30.83;;;26.83;;
81170;SDS011;70644;44.818;20.478;2023-11-21T11:50:08;32.38;;;27.00;;
81170;SDS011;70644;44.818;20.478;2023-11-21T11:52:52;33.13;;;27.05;;
81170;SDS011;70644;44.818;20.478;2023-11-21T11:55:23;32.22;;;26.65;;
81170;SDS011;70644;44.818;20.478;2023-11-21T11:57:53;30.77;;;25.75;;
81170;SDS011;70644;44.818;20.478;2023-11-21T12:00:44;33.28;;;26.55;;
81170;SDS011;70644;44.818;20.478;2023-11-21T12:03:13;27.00;;;23.45;;
81170;SDS011;70644;44.818;20.478;2023-11-21T12:05:40;29.15;;;23.75;;
81170;SDS011;70644;44.818;20.478;2023-11-21T12:08:10;27.98;;;23.02;;
81170;SDS011;70644;44.818;20.478;2023-11-21T12:10:37;27.67;;;23.23;;
81170;SDS011;70644;44.818;20.478;2023-11-21T12:13:08;25.98;;;23.20;;
81170;SDS011;70644;44.818;20.478;2023-11-21T12:15:38;28.83;;;24.00;;
81170;SDS011;70644;44.818;20.478;2023-11-21T12:18:06;27.05;;;23.35;;
81170;SDS011;70644;44.818;20.478;2023-11-21T12:20:32;29.50;;;24.95;;
81170;SDS011;70644;44.818;20.478;2023-11-21T12:23:03;30.40;;;26.08;;
81170;SDS011;70644;44.818;20.478;2023-11-21T12:25:30;30.05;;;26.80;;
81170;SDS011;70644;44.818;20.478;2023-11-21T12:27:58;29.73;;;24.95;;
81170;SDS011;70644;44.818;20.478;2023-11-21T12:30:28;28.60;;;24.02;;
81170;SDS011;70644;44.818;20.478;2023-11-21T12:32:56;27.42;;;24.38;;
81170;SDS011;70644;44.818;20.478;2023-11-21T12:35:25;24.77;;;21.55;;
81170;SDS011;70644;44.818;20.478;2023-11-21T12:37:52;26.10;;;22.65;;
81170;SDS011;70644;44.818;20.478;2023-11-21T12:40:18;25.90;;;22.13;;
81170;SDS011;70644;44.818;20.478;2023-11-21T12:42:45;24.65;;;21.30;;
81170;SDS011;70644;44.818;20.478;2023-11-21T12:47:46;24.40;;;19.33;;
81170;SDS011;70644;44.818;20.478;2023-11-21T12:50:13;24.33;;;20.20;;
81170;SDS011;70644;44.818;20.478;2023-11-21T12:52:43;24.50;;;20.45;;
81170;SDS011;70644;44.818;20.478;2023-11-21T12:55:21;24.95;;;21.15;;
81170;SDS011;70644;44.818;20.478;2023-11-21T12:57:54;24.05;;;20.75;;
81170;SDS011;70644;44.818;20.478;2023-11-21T13:00:28;23.67;;;21.05;;
81170;SDS011;70644;44.818;20.478;2023-11-21T13:02:55;27.00;;;21.27;;
81170;SDS011;70644;44.818;20.478;2023-11-21T13:05:31;22.00;;;19.55;;
81170;SDS011;70644;44.818;20.478;2023-11-21T13:07:57;22.00;;;18.55;;
81170;SDS011;70644;44.818;20.478;2023-11-21T13:10:25;22.67;;;19.75;;
81170;SDS011;70644;44.818;20.478;2023-11-21T13:12:54;23.67;;;19.65;;
81170;SDS011;70644;44.818;20.478;2023-11-21T13:17:50;20.35;;;18.15;;
81170;SDS011;70644;44.818;20.478;2023-11-21T13:20:16;22.25;;;18.92;;
81170;SDS011;70644;44.818;20.478;2023-11-21T13:25:11;25.10;;;18.13;;
81170;SDS011;70644;44.818;20.478;2023-11-21T13:27:39;20.73;;;18.52;;
81170;SDS011;70644;44.818;20.478;2023-11-21T13:30:08;20.05;;;17.73;;
81170;SDS011;70644;44.818;20.478;2023-11-21T13:32:35;22.88;;;18.60;;
81170;SDS011;70644;44.818;20.478;2023-11-21T13:35:01;20.48;;;17.92;;
81170;SDS011;70644;44.818;20.478;2023-11-21T13:37:27;21.02;;;18.35;;
81170;SDS011;70644;44.818;20.478;2023-11-21T13:39:55;19.70;;;17.60;;
81170;SDS011;70644;44.818;20.478;2023-11-21T13:42:21;20.10;;;17.08;;
81170;SDS011;70644;44.818;20.478;2023-11-21T13:44:55;23.00;;;18.95;;
81170;SDS011;70644;44.818;20.478;2023-11-21T13:47:22;19.13;;;17.13;;
81170;SDS011;70644;44.818;20.478;2023-11-21T13:49:50;20.15;;;18.02;;
81170;SDS011;70644;44.818;20.478;2023-11-21T13:52:17;20.95;;;17.27;;
81170;SDS011;70644;44.818;20.478;2023-11-21T13:54:47;22.13;;;18.05;;
81170;SDS011;70644;44.818;20.478;2023-11-21T13:57:13;18.17;;;16.17;;
81170;SDS011;70644;44.818;20.478;2023-11-21T13:59:39;20.45;;;17.63;;
81170;SDS011;70644;44.818;20.478;2023-11-21T14:02:09;18.65;;;16.15;;
81170;SDS011;70644;44.818;20.478;2023-11-21T14:04:43;19.08;;;16.55;;
81170;SDS011;70644;44.818;20.478;2023-11-21T14:07:20;20.08;;;17.00;;
81170;SDS011;70644;44.818;20.478;2023-11-21T14:09:51;19.05;;;17.02;;
81170;SDS011;70644;44.818;20.478;2023-11-21T14:12:18;19.35;;;16.77;;
81170;SDS011;70644;44.818;20.478;2023-11-21T14:14:44;19.63;;;17.52;;
81170;SDS011;70644;44.818;20.478;2023-11-21T14:17:12;19.00;;;17.10;;
81170;SDS011;70644;44.818;20.478;2023-11-21T14:19:38;20.40;;;17.73;;
81170;SDS011;70644;44.818;20.478;2023-11-21T14:22:08;22.88;;;17.95;;
81170;SDS011;70644;44.818;20.478;2023-11-21T14:24:35;20.85;;;17.52;;
81170;SDS011;70644;44.818;20.478;2023-11-21T14:27:02;21.40;;;16.95;;
81170;SDS011;70644;44.818;20.478;2023-11-21T14:29:28;19.58;;;17.58;;